TLO weather

San Diego Airport
Tello, Huila Department, Colombia

Public forecast

Using degrees Celsius for public forecast. Weather courtesy of forecast.io.

Closest aviation weather report (METAR) to San Diego Airport

Report is more than 6 hours old.

Closest report is Benito Salas Airport, 9.5 nm (17.5 km) SW. Retrieved 2019/10/21 02:00 UTC (7 hours ago):

SKNV 210200Z 19004KT 9999 NSC 25/21 A2994

Closest aviation forecast (TAF) to San Diego Airport

Closest forecast is Alfonso Bonilla Aragon International Airport, 77.1 nm (142.8 km) WNW. Retrieved 2019/10/21 06:30 UTC (2 hours ago):

TAF SKCL 210430Z 2106/2206 11004KT 9999 SCT030 SCT120 TEMPO 2106/2108 7000 VCFG SCT018 TEMPO 2109/2113 4000 BR -RA SCT013 BECMG 2117/2119 30008KT TEMPO 2121/2124 6000 RA SCT018CB TX30/2119Z TN19/2111Z